createdAt,value
2022-11-08T00:01:37.630Z,13.93
2022-11-08T00:04:49.603Z,12.28
2022-11-08T00:08:16.107Z,13.40
2022-11-08T00:11:42.845Z,12.78
2022-11-08T00:14:54.743Z,13.98
2022-11-08T00:18:06.660Z,14.15
2022-11-08T00:21:18.739Z,13.18
2022-11-08T00:24:30.902Z,12.63
2022-11-08T00:27:42.794Z,13.45
2022-11-08T00:30:54.636Z,13.25
2022-11-08T00:34:06.600Z,13.53
2022-11-08T00:37:18.870Z,15.50
2022-11-08T00:40:30.586Z,17.65
2022-11-08T00:43:42.490Z,19.23
2022-11-08T00:46:54.686Z,17.33
2022-11-08T00:50:06.594Z,17.58
2022-11-08T00:53:18.764Z,14.43
2022-11-08T00:56:30.872Z,13.70
2022-11-08T00:59:42.659Z,14.78
2022-11-08T01:02:57.180Z,14.08
2022-11-08T01:06:13.138Z,13.35
2022-11-08T01:09:24.934Z,13.88
2022-11-08T01:12:36.867Z,13.30
2022-11-08T01:15:51.757Z,12.90
2022-11-08T01:19:04.737Z,12.90
2022-11-08T01:22:16.477Z,14.53
2022-11-08T01:25:28.205Z,15.20
2022-11-08T01:28:40.922Z,18.60
2022-11-08T01:31:52.621Z,21.05
2022-11-08T01:35:04.409Z,35.73
2022-11-08T01:38:18.547Z,25.95
2022-11-08T01:41:32.196Z,20.73
2022-11-08T01:45:04.896Z,28.75
2022-11-08T01:48:17.485Z,33.53
2022-11-08T01:51:34.519Z,36.35
2022-11-08T01:54:51.900Z,27.80
2022-11-08T01:58:08.742Z,26.75
2022-11-08T02:01:20.781Z,25.30
2022-11-08T02:04:33.149Z,24.25
2022-11-08T02:07:45.108Z,20.13
2022-11-08T02:10:58.806Z,17.35
2022-11-08T02:14:12.170Z,17.93
2022-11-08T02:17:26.406Z,18.83
2022-11-08T02:20:39.069Z,13.83
2022-11-08T02:23:55.341Z,14.85
2022-11-08T02:27:08.378Z,13.57
2022-11-08T02:30:20.178Z,13.55
2022-11-08T02:33:32.747Z,16.30
2022-11-08T02:36:44.492Z,28.70
2022-11-08T02:39:56.606Z,25.83
2022-11-08T02:43:08.309Z,24.60
2022-11-08T02:46:20.208Z,25.15
2022-11-08T02:49:31.932Z,24.53
2022-11-08T02:52:43.761Z,23.90
2022-11-08T02:55:56.054Z,23.90
2022-11-08T02:59:07.863Z,23.98
2022-11-08T03:02:19.854Z,21.75
2022-11-08T03:05:33.348Z,22.45
2022-11-08T03:08:46.472Z,22.43
2022-11-08T03:11:58.710Z,19.93
2022-11-08T03:15:14.179Z,19.23
2022-11-08T03:18:26.007Z,17.55
2022-11-08T03:21:37.815Z,16.68
2022-11-08T03:24:49.752Z,17.45
2022-11-08T03:28:01.552Z,17.68
2022-11-08T03:31:13.595Z,18.23
2022-11-08T03:34:25.399Z,18.35
2022-11-08T03:37:38.302Z,17.53
2022-11-08T03:40:51.131Z,16.95
2022-11-08T03:44:06.050Z,15.93
2022-11-08T03:47:17.867Z,16.65
2022-11-08T03:50:29.699Z,18.28
2022-11-08T03:53:41.601Z,17.43
2022-11-08T03:56:53.445Z,18.00
2022-11-08T04:00:05.332Z,18.75
2022-11-08T04:03:19.105Z,19.13
2022-11-08T04:06:31.119Z,19.73
2022-11-08T04:09:42.841Z,21.53
2022-11-08T04:13:09.194Z,20.40
2022-11-08T04:16:20.963Z,21.65
2022-11-08T04:19:52.786Z,19.93
2022-11-08T04:23:04.519Z,16.75
2022-11-08T04:26:16.507Z,15.33
2022-11-08T04:29:28.343Z,13.60
2022-11-08T04:32:40.046Z,14.30
2022-11-08T04:35:52.538Z,12.98
2022-11-08T04:39:04.250Z,12.38
2022-11-08T04:42:15.979Z,11.90
2022-11-08T04:45:27.918Z,11.70
2022-11-08T04:48:40.483Z,11.83
2022-11-08T04:51:52.199Z,11.88
2022-11-08T04:55:04.017Z,11.80
2022-11-08T04:58:16.093Z,10.40
2022-11-08T05:01:31.331Z,10.78
2022-11-08T05:04:43.169Z,11.58
2022-11-08T05:07:55.165Z,12.10
2022-11-08T05:11:12.965Z,11.60
2022-11-08T05:14:25.075Z,10.85
2022-11-08T05:17:36.780Z,10.38
2022-11-08T05:21:03.001Z,9.43
2022-11-08T05:24:18.661Z,10.53
2022-11-08T05:27:30.556Z,9.55
2022-11-08T05:30:42.321Z,9.23
2022-11-08T05:33:54.691Z,9.93
2022-11-08T05:37:06.439Z,10.28
2022-11-08T05:40:19.590Z,9.98
2022-11-08T05:43:31.849Z,8.63
2022-11-08T05:46:43.680Z,8.95
2022-11-08T05:49:55.411Z,9.13
2022-11-08T05:53:07.827Z,9.90
2022-11-08T05:56:20.577Z,8.93
2022-11-08T05:59:32.468Z,10.78
2022-11-08T06:02:44.455Z,9.38
2022-11-08T06:05:56.410Z,8.98
2022-11-08T06:09:08.708Z,9.98
2022-11-08T06:12:20.460Z,10.20
2022-11-08T06:15:32.435Z,11.10
2022-11-08T06:18:45.674Z,13.18
2022-11-08T06:21:57.576Z,16.48
2022-11-08T06:25:10.408Z,19.63
2022-11-08T06:28:22.213Z,20.78
2022-11-08T06:31:34.025Z,23.63
2022-11-08T06:34:46.016Z,22.25
2022-11-08T06:38:01.216Z,21.93
2022-11-08T06:41:11.822Z,24.75
2022-11-08T06:44:23.609Z,27.30
2022-11-08T06:47:35.409Z,28.78
2022-11-08T06:50:48.281Z,34.68
2022-11-08T06:54:00.158Z,42.63
2022-11-08T06:57:12.148Z,34.45
2022-11-08T07:00:26.077Z,32.75
2022-11-08T07:03:38.116Z,31.78
2022-11-08T07:06:50.059Z,30.30
2022-11-08T07:10:03.966Z,29.98
2022-11-08T07:13:19.643Z,30.18
2022-11-08T07:16:31.835Z,28.60
2022-11-08T07:19:43.777Z,30.60
2022-11-08T07:22:55.676Z,28.90
2022-11-08T07:26:13.086Z,29.63
2022-11-08T07:29:25.066Z,28.80
2022-11-08T07:32:36.803Z,27.45
2022-11-08T07:35:51.221Z,27.50
2022-11-08T07:39:06.565Z,28.48
2022-11-08T07:42:17.246Z,27.63
2022-11-08T07:45:31.559Z,28.53
2022-11-08T07:48:43.298Z,28.15
2022-11-08T07:51:55.084Z,28.43
2022-11-08T07:55:07.053Z,77.18
2022-11-08T07:58:19.312Z,123.30
2022-11-08T08:01:31.216Z,62.58
2022-11-08T08:04:43.211Z,37.08
2022-11-08T08:07:57.374Z,28.93
2022-11-08T08:11:09.764Z,24.55
2022-11-08T08:14:21.656Z,24.05
2022-11-08T08:17:33.568Z,22.48
2022-11-08T11:25:02.556Z,3.68
2022-11-08T14:53:50.894Z,4.63
2022-11-08T14:57:06.410Z,4.97
2022-11-08T15:03:25.417Z,42.53
2022-11-08T15:29:21.524Z,5.08
2022-11-08T15:32:40.075Z,5.20
2022-11-08T15:35:56.380Z,4.58
2022-11-08T15:39:22.204Z,5.30
2022-11-08T15:42:34.429Z,4.88
2022-11-08T15:45:57.844Z,5.70
2022-11-08T15:49:24.238Z,5.18
2022-11-08T15:52:36.164Z,5.75
2022-11-08T15:55:52.937Z,6.33
2022-11-08T15:59:04.812Z,6.03
2022-11-08T16:02:22.086Z,8.28
2022-11-08T16:05:36.058Z,7.63
2022-11-08T16:08:48.458Z,7.60
2022-11-08T16:12:01.067Z,6.73
2022-11-08T16:15:17.690Z,6.83
2022-11-08T16:18:31.831Z,9.23
2022-11-08T16:21:43.704Z,9.15
2022-11-08T16:24:55.649Z,11.93
2022-11-08T16:28:10.594Z,9.95
2022-11-08T16:31:23.441Z,10.35
2022-11-08T16:34:35.438Z,9.23
2022-11-08T16:37:48.331Z,9.05
2022-11-08T16:41:00.890Z,8.60
2022-11-08T16:44:13.825Z,8.35
2022-11-08T16:47:26.535Z,7.95
2022-11-08T16:50:40.419Z,7.13
2022-11-08T16:53:53.444Z,7.93
2022-11-08T16:57:32.952Z,8.18
2022-11-08T17:00:23.683Z,11.15
2022-11-08T17:03:35.598Z,8.70
2022-11-08T17:06:47.515Z,9.98
2022-11-08T17:09:59.552Z,8.43
2022-11-08T17:13:11.754Z,7.60
2022-11-08T17:16:24.167Z,8.25
2022-11-08T17:19:36.098Z,7.10
2022-11-08T17:22:49.294Z,8.15
2022-11-08T17:26:01.175Z,10.20
2022-11-08T17:29:13.145Z,12.05
2022-11-08T17:32:25.088Z,10.73
2022-11-08T17:35:42.477Z,10.40
2022-11-08T17:38:50.922Z,9.78
2022-11-08T17:42:02.822Z,9.15
2022-11-08T17:45:18.253Z,8.80
2022-11-08T17:48:30.387Z,9.08
2022-11-08T17:51:42.394Z,9.00
2022-11-08T17:54:54.562Z,9.20
2022-11-08T17:58:06.846Z,10.78
2022-11-08T18:01:19.341Z,9.58
2022-11-08T18:04:31.325Z,10.05
2022-11-08T18:07:43.217Z,9.68
2022-11-08T18:10:55.666Z,9.90
2022-11-08T18:14:07.977Z,9.30
2022-11-08T18:17:22.134Z,25.68
2022-11-08T18:20:34.836Z,12.95
2022-11-08T18:23:50.718Z,11.05
2022-11-08T18:27:02.961Z,11.78
2022-11-08T18:30:18.078Z,10.88
2022-11-08T18:33:30.026Z,10.20
2022-11-08T18:36:42.313Z,10.80
2022-11-08T18:39:54.179Z,9.35
2022-11-08T18:43:06.121Z,10.85
2022-11-08T18:46:24.062Z,9.50
2022-11-08T18:49:36.083Z,8.65
2022-11-08T18:52:49.227Z,8.75
2022-11-08T18:56:01.277Z,8.98
2022-11-08T18:59:13.481Z,8.75
2022-11-08T19:02:25.488Z,8.55
2022-11-08T19:05:38.170Z,8.85
2022-11-08T19:08:50.397Z,11.73
2022-11-08T19:12:05.916Z,9.05
2022-11-08T19:15:17.534Z,9.13
2022-11-08T19:18:29.818Z,9.50
2022-11-08T19:21:43.721Z,10.70
2022-11-08T19:24:55.707Z,11.08
2022-11-08T19:28:07.655Z,11.50
2022-11-08T19:31:21.196Z,11.68
2022-11-08T19:34:33.648Z,10.28
2022-11-08T19:37:45.642Z,9.53
2022-11-08T19:40:57.785Z,10.58
2022-11-08T19:44:14.664Z,9.68
2022-11-08T19:47:29.540Z,9.70
2022-11-08T19:50:43.502Z,9.35
2022-11-08T19:54:00.763Z,10.18
2022-11-08T19:57:14.475Z,10.80
2022-11-08T20:00:28.496Z,13.73
2022-11-08T20:03:42.390Z,11.35
2022-11-08T20:06:56.259Z,10.08
2022-11-08T20:10:12.251Z,10.53
2022-11-08T20:13:25.869Z,12.03
2022-11-08T20:16:43.041Z,11.55
2022-11-08T20:23:07.612Z,11.90
2022-11-08T20:26:22.693Z,12.38
2022-11-08T20:29:35.590Z,13.50
2022-11-08T20:32:47.423Z,13.40
2022-11-08T20:35:59.301Z,14.50
2022-11-08T20:39:12.107Z,17.25
2022-11-08T20:42:24.147Z,18.38
2022-11-08T20:45:35.907Z,18.40
2022-11-08T20:48:52.005Z,19.05
2022-11-08T20:52:02.571Z,17.63
2022-11-08T20:55:15.702Z,18.50
2022-11-08T20:58:27.587Z,20.40
2022-11-08T21:01:39.835Z,21.40
2022-11-08T21:04:51.803Z,21.77
2022-11-08T21:08:56.510Z,21.70
2022-11-08T21:11:23.140Z,20.95
2022-11-08T21:14:35.254Z,21.88
2022-11-08T21:17:47.307Z,20.48
2022-11-08T21:21:09.427Z,21.15
2022-11-08T21:24:21.594Z,21.63
2022-11-08T21:27:35.631Z,21.30
2022-11-08T21:30:51.402Z,20.73
2022-11-08T21:34:03.517Z,21.60
2022-11-08T21:37:16.376Z,22.18
2022-11-08T21:40:28.430Z,21.33
2022-11-08T21:43:43.278Z,21.15
2022-11-08T21:46:55.403Z,22.03
2022-11-08T21:50:07.457Z,20.98
2022-11-08T21:53:19.854Z,21.93
2022-11-08T21:56:36.089Z,21.83
2022-11-08T21:59:48.096Z,20.47
2022-11-08T22:03:00.384Z,19.93
2022-11-08T22:06:13.034Z,19.83
2022-11-08T22:09:25.439Z,22.08
2022-11-08T22:12:37.789Z,21.70
2022-11-08T22:15:51.549Z,21.38
2022-11-08T22:19:05.200Z,21.08
2022-11-08T22:22:17.921Z,18.30
2022-11-08T22:25:29.970Z,20.80
2022-11-08T22:28:41.976Z,18.30
2022-11-08T22:31:54.948Z,17.75
2022-11-08T22:35:06.880Z,18.90
2022-11-08T22:38:20.067Z,20.83
2022-11-08T22:41:32.830Z,20.40
2022-11-08T22:44:44.937Z,19.43
2022-11-08T22:47:57.022Z,19.28
2022-11-08T22:51:09.433Z,19.18
2022-11-08T22:54:21.542Z,20.70
2022-11-08T22:57:33.903Z,20.30
2022-11-08T23:00:46.481Z,17.83
2022-11-08T23:03:58.567Z,19.53
2022-11-08T23:07:10.650Z,18.23
2022-11-08T23:10:23.091Z,18.68
2022-11-08T23:13:50.158Z,19.03
2022-11-08T23:17:02.153Z,20.95
2022-11-08T23:20:30.887Z,20.75
2022-11-08T23:23:57.635Z,20.52
2022-11-08T23:27:25.522Z,23.77
2022-11-08T23:30:51.896Z,22.95
2022-11-08T23:34:04.357Z,21.65
2022-11-08T23:37:16.289Z,23.55
2022-11-08T23:40:43.157Z,21.75
2022-11-08T23:44:10.087Z,23.65
2022-11-08T23:47:22.096Z,27.43
2022-11-08T23:50:34.250Z,23.43
2022-11-08T23:53:45.921Z,26.50
2022-11-08T23:56:58.733Z,26.88
